Time;durP1;ratioP1;P1;durP2;ratioP2;P2;SDS_P1;SDS_P2;PMS_P1;PMS_P2;Temp;Humidity;BMP_temperature;BMP_pressure;BME280_temperature;BME280_humidity;BME280_pressure;Samples;Min_cycle;Max_cycle;Signal;HPM_P1;HPM_P2
2022/11/17 00:01:53;;;;;;;1.35;0.65;;;;;;;16.66;52.52;98654.69;4994472;28;20038;-64
2022/11/17 00:04:19;;;;;;;1.80;0.75;;;;;;;16.69;51.78;98653.41;4995341;28;20034;-64
2022/11/17 00:06:44;;;;;;;0.68;0.68;;;;;;;16.69;51.34;98646.13;4996257;28;20093;-64
2022/11/17 00:09:16;;;;;;;2.33;1.33;;;;;;;16.70;51.89;98630.72;4994614;28;20033;-64
2022/11/17 00:14:31;;;;;;;1.02;0.60;;;;;;;16.69;51.98;98624.50;4994571;28;20098;-70
2022/11/17 00:17:00;;;;;;;1.65;0.63;;;;;;;16.72;51.91;98612.41;4994290;28;20031;-70
2022/11/17 00:22:10;;;;;;;3.67;1.00;;;;;;;16.69;52.69;98596.63;4996207;28;20109;-68
2022/11/17 00:24:35;;;;;;;1.35;0.60;;;;;;;16.70;52.20;98607.22;4995693;28;20031;-66
2022/11/17 00:27:01;;;;;;;3.40;0.50;;;;;;;16.73;52.24;98605.94;4995466;28;20057;-65
2022/11/17 00:29:27;;;;;;;3.15;0.50;;;;;;;16.74;52.49;98594.09;4978538;28;20036;-66
2022/11/17 00:34:36;;;;;;;1.77;0.40;;;;;;;16.72;51.48;98572.66;4994966;28;20450;-68
2022/11/17 00:37:02;;;;;;;1.77;0.47;;;;;;;16.72;52.09;98564.56;4994564;28;20034;-68
2022/11/17 00:39:27;;;;;;;0.30;0.10;;;;;;;16.72;51.87;98559.16;4994219;28;20038;-67
2022/11/17 00:41:53;;;;;;;0.10;0.10;;;;;;;16.73;52.58;98562.69;4996109;28;20109;-67
2022/11/17 00:44:18;;;;;;;0.20;0.20;;;;;;;16.79;52.06;98564.50;4994009;28;20527;-66
2022/11/17 00:46:44;;;;;;;0.20;0.20;;;;;;;16.79;52.90;98565.31;4993787;28;20192;-66
2022/11/17 00:49:10;;;;;;;0.68;0.10;;;;;;;16.82;51.99;98553.22;4994930;28;20058;-65
2022/11/17 00:51:36;;;;;;;0.70;0.13;;;;;;;16.83;52.42;98550.28;4993738;28;20037;-65
2022/11/17 00:54:02;;;;;;;0.10;0.10;;;;;;;16.87;53.07;98543.41;4978019;28;20120;-65
2022/11/17 00:56:28;;;;;;;0.10;0.10;;;;;;;16.89;53.04;98562.91;4993876;28;20030;-64
2022/11/17 00:58:53;;;;;;;0.35;0.10;;;;;;;16.94;52.08;98561.44;4994451;28;20043;-64
2022/11/17 01:01:19;;;;;;;0.20;0.00;;;;;;;16.98;53.49;98573.44;4994135;28;20094;-65
2022/11/17 01:03:45;;;;;;;0.10;0.00;;;;;;;16.99;51.81;98573.22;4994129;28;20042;-65
2022/11/17 01:06:12;;;;;;;0.30;0.00;;;;;;;17.00;52.49;98565.94;4993746;28;20022;-65
2022/11/17 01:08:38;;;;;;;0.25;0.25;;;;;;;17.02;53.03;98564.66;4995529;28;20073;-65
2022/11/17 01:11:08;;;;;;;1.55;0.10;;;;;;;17.02;53.53;98566.53;4993869;28;20030;-65
2022/11/17 01:13:33;;;;;;;0.20;0.10;;;;;;;17.02;52.65;98559.25;4992557;28;20041;-65
2022/11/17 01:16:08;;;;;;;0.05;0.05;;;;;;;17.07;53.26;98545.03;4994046;28;20023;-64
2022/11/17 01:18:34;;;;;;;0.65;0.00;;;;;;;17.11;53.16;98543.53;4977941;28;20545;-64
2022/11/17 01:21:08;;;;;;;0.10;0.10;;;;;;;17.15;53.23;98536.59;4978013;28;20022;-64
2022/11/17 01:23:34;;;;;;;0.00;0.00;;;;;;;17.16;53.19;98532.84;4995008;28;20129;-64
2022/11/17 01:26:02;;;;;;;0.10;0.00;;;;;;;17.22;52.95;98529.25;4993711;28;20104;-64
2022/11/17 01:28:27;;;;;;;0.00;0.00;;;;;;;17.26;52.48;98528.56;4977362;28;20034;-64
2022/11/17 01:31:07;;;;;;;0.00;0.00;;;;;;;17.30;53.21;98518.94;4994634;28;20038;-64
2022/11/17 01:33:33;;;;;;;0.10;0.10;;;;;;;17.32;52.84;98514.13;4977647;28;20027;-64
2022/11/17 01:36:04;;;;;;;0.10;0.00;;;;;;;17.37;53.03;98498.00;4994394;28;20057;-64
2022/11/17 01:38:30;;;;;;;0.25;0.00;;;;;;;17.37;52.73;98510.72;4993739;28;20050;-63
2022/11/17 01:40:59;;;;;;;0.10;0.10;;;;;;;17.39;52.69;98505.91;4995096;28;20034;-63
2022/11/17 01:43:40;;;;;;;0.00;0.00;;;;;;;17.41;53.18;98504.63;4993767;28;20519;-63
2022/11/17 01:46:12;;;;;;;0.20;0.00;;;;;;;17.44;52.32;98481.69;4995050;28;20085;-63
2022/11/17 01:48:37;;;;;;;0.10;0.00;;;;;;;17.43;53.47;98480.03;4977525;28;20089;-63
2022/11/17 01:51:03;;;;;;;0.13;0.00;;;;;;;17.45;52.61;98481.44;4977957;28;20027;-63
2022/11/17 01:53:30;;;;;;;0.00;0.00;;;;;;;17.43;52.41;98477.31;4994098;28;20042;-63
2022/11/17 01:55:58;;;;;;;0.00;0.00;;;;;;;17.46;53.25;98469.56;4977544;28;20054;-63
2022/11/17 01:58:33;;;;;;;0.10;0.00;;;;;;;17.48;52.80;98453.06;4993925;28;20116;-63
2022/11/17 02:00:58;;;;;;;0.05;0.05;;;;;;;17.48;52.45;98469.31;4977311;28;20085;-63
2022/11/17 02:03:25;;;;;;;0.28;0.10;;;;;;;17.50;52.05;98466.41;4976999;28;20022;-63
2022/11/17 02:05:54;;;;;;;0.00;0.00;;;;;;;17.54;51.73;98471.13;4993855;28;20109;-63
2022/11/17 02:08:22;;;;;;;0.20;0.00;;;;;;;17.55;52.94;98461.97;4977260;28;20042;-62
2022/11/17 02:10:48;;;;;;;0.98;0.10;;;;;;;17.57;52.61;98459.03;4993666;28;20037;-62
2022/11/17 02:13:14;;;;;;;0.20;0.05;;;;;;;17.57;52.53;98449.03;4993721;28;20034;-63
2022/11/17 02:15:39;;;;;;;0.00;0.00;;;;;;;17.58;52.90;98453.38;4995032;28;20425;-62
2022/11/17 02:18:05;;;;;;;0.00;0.00;;;;;;;17.58;52.28;98433.59;4995418;28;20030;-63
2022/11/17 02:21:12;;;;;;;0.00;0.00;;;;;;;17.62;53.12;98446.44;4994058;28;20496;-63
2022/11/17 02:24:08;;;;;;;0.00;0.00;;;;;;;17.63;52.80;98453.50;4992876;28;20055;-63
2022/11/17 02:26:52;;;;;;;0.00;0.00;;;;;;;17.60;52.33;98458.56;4995781;28;20145;-70
2022/11/17 02:29:30;;;;;;;1.23;0.00;;;;;;;17.57;52.99;98454.44;4981212;28;20105;-70
2022/11/17 02:32:22;;;;;;;2.15;0.00;;;;;;;17.54;52.06;98449.47;4997748;28;20089;-70
2022/11/17 02:35:15;;;;;;;0.28;0.10;;;;;;;17.47;52.59;98443.31;4989804;28;20046;-69
2022/11/17 02:37:54;;;;;;;0.30;0.00;;;;;;;17.42;52.11;98435.06;4997429;28;20399;-68
2022/11/17 02:40:42;;;;;;;0.00;0.00;;;;;;;17.35;52.29;98434.34;4997535;28;20571;-66
2022/11/17 02:46:14;;;;;;;0.00;0.00;;;;;;;17.32;51.84;98419.41;4997665;28;20526;-64
2022/11/17 02:48:44;;;;;;;0.00;0.00;;;;;;;17.33;52.70;98414.81;4997167;28;20050;-64
2022/11/17 02:51:14;;;;;;;0.17;0.10;;;;;;;17.31;52.85;98395.25;4980453;28;20180;-64
2022/11/17 02:53:40;;;;;;;0.00;0.00;;;;;;;17.33;52.69;98404.81;4997251;28;20562;-64
2022/11/17 02:56:06;;;;;;;0.65;0.28;;;;;;;17.31;51.74;98384.44;4980150;28;20034;-64
2022/11/17 02:58:31;;;;;;;0.08;0.08;;;;;;;17.32;52.14;98380.69;4996019;28;20085;-64
2022/11/17 03:01:15;;;;;;;2.30;0.10;;;;;;;17.35;53.14;98388.34;4997019;28;20065;-64
2022/11/17 03:04:00;;;;;;;0.00;0.00;;;;;;;17.33;51.92;98394.00;4995325;28;20030;-64
2022/11/17 03:06:37;;;;;;;0.10;0.10;;;;;;;17.32;52.78;98380.69;4995348;28;20121;-63
2022/11/17 03:09:12;;;;;;;0.10;0.05;;;;;;;17.30;52.97;98371.97;4995725;28;20026;-64
2022/11/17 03:11:52;;;;;;;0.00;0.00;;;;;;;17.30;52.38;98374.69;4995338;28;20492;-64
2022/11/17 03:14:24;;;;;;;0.00;0.00;;;;;;;17.30;52.68;98371.97;4995546;28;20034;-63
2022/11/17 03:16:56;;;;;;;0.20;0.17;;;;;;;17.28;52.82;98360.56;4996470;28;20034;-63
2022/11/17 03:19:40;;;;;;;0.20;0.03;;;;;;;17.33;51.99;98366.09;4995308;28;20045;-63
2022/11/17 03:22:22;;;;;;;0.22;0.10;;;;;;;17.32;53.13;98354.44;4995046;28;20034;-63
2022/11/17 03:24:57;;;;;;;0.10;0.10;;;;;;;17.32;52.14;98354.44;4995237;28;20105;-63
2022/11/17 03:27:32;;;;;;;0.00;0.00;;;;;;;17.33;52.25;98353.41;4978800;28;20037;-63
2022/11/17 03:30:00;;;;;;;0.00;0.00;;;;;;;17.34;52.79;98341.50;4979166;28;20061;-63
2022/11/17 03:32:27;;;;;;;0.30;0.10;;;;;;;17.34;52.89;98333.38;4995178;28;20035;-63
2022/11/17 03:34:58;;;;;;;0.00;0.00;;;;;;;17.33;51.98;98339.88;4995430;28;20062;-62
2022/11/17 03:37:25;;;;;;;0.90;0.10;;;;;;;17.30;53.01;98325.97;4979008;28;20176;-63
2022/11/17 03:39:52;;;;;;;0.00;0.00;;;;;;;17.29;52.48;98332.44;4979196;28;20396;-63
2022/11/17 03:42:22;;;;;;;0.10;0.10;;;;;;;17.31;52.25;98338.44;4978926;28;20391;-62
2022/11/17 03:44:57;;;;;;;1.35;0.30;;;;;;;17.31;52.84;98335.72;4995656;28;20081;-62
2022/11/17 03:47:25;;;;;;;0.03;0.03;;;;;;;17.32;52.63;98326.56;4995399;28;20042;-62
2022/11/17 03:49:56;;;;;;;3.22;0.10;;;;;;;17.33;53.05;98323.63;4994991;28;20041;-63
2022/11/17 03:52:23;;;;;;;1.55;0.13;;;;;;;17.33;52.24;98320.09;4978636;28;20038;-62
2022/11/17 03:54:50;;;;;;;0.65;0.20;;;;;;;17.35;52.51;98323.38;4996302;28;20503;-62
2022/11/17 03:57:37;;;;;;;0.17;0.17;;;;;;;17.39;52.62;98328.09;4995133;28;20436;-62
2022/11/17 04:00:05;;;;;;;2.08;0.30;;;;;;;17.39;52.43;98330.00;4978824;28;20038;-62
2022/11/17 04:02:30;;;;;;;0.47;0.20;;;;;;;17.40;53.18;98320.78;4979063;28;20041;-62
2022/11/17 04:05:05;;;;;;;1.15;0.10;;;;;;;17.39;52.30;98311.06;4979256;28;20035;-62
2022/11/17 04:07:31;;;;;;;0.63;0.20;;;;;;;17.41;52.06;98314.34;4995218;28;20032;-62
2022/11/17 04:09:57;;;;;;;4.43;0.30;;;;;;;17.42;52.56;98321.38;4995573;28;20033;-62
2022/11/17 04:17:50;;;;;;;1.38;0.30;;;;;;;17.41;53.19;98315.16;4995056;28;20149;-63
2022/11/17 04:20:15;;;;;;;0.85;0.40;;;;;;;17.37;52.35;98313.16;4977885;28;20118;-69
2022/11/17 04:22:40;;;;;;;1.75;0.20;;;;;;;17.35;52.99;98309.84;4994089;28;20058;-71
2022/11/17 04:25:06;;;;;;;3.92;0.50;;;;;;;17.34;52.52;98302.78;4993845;28;20444;-71
2022/11/17 04:30:16;;;;;;;2.97;0.43;;;;;;;17.30;52.87;98279.97;4994002;28;20053;-70
2022/11/17 04:32:41;;;;;;;1.27;0.63;;;;;;;17.29;52.60;98286.44;4978141;28;20112;-69
2022/11/17 04:35:06;;;;;;;2.75;0.75;;;;;;;17.27;53.73;98275.03;4977928;28;20047;-69
2022/11/17 04:37:32;;;;;;;0.80;0.40;;;;;;;17.29;52.16;98272.91;4977799;28;20038;-68
2022/11/17 04:39:57;;;;;;;1.67;0.47;;;;;;;17.28;53.06;98274.00;4994497;28;20511;-68
2022/11/17 04:42:22;;;;;;;2.88;0.52;;;;;;;17.30;53.18;98274.56;4994268;28;20049;-67
2022/11/17 04:44:48;;;;;;;5.15;0.70;;;;;;;17.27;52.67;98275.03;4995635;28;20408;-66
2022/11/17 04:47:13;;;;;;;0.55;0.40;;;;;;;17.26;52.29;98273.38;4977683;28;20438;-66
2022/11/17 04:49:39;;;;;;;4.47;0.43;;;;;;;17.23;52.79;98285.50;4994988;28;20030;-66
2022/11/17 04:52:04;;;;;;;3.03;0.50;;;;;;;17.21;53.17;98286.78;4990565;28;20054;-66
2022/11/17 04:54:30;;;;;;;3.30;0.50;;;;;;;17.11;53.72;98278.44;4994251;28;20030;-66
2022/11/17 04:56:56;;;;;;;2.38;0.50;;;;;;;17.20;53.36;98290.53;4961819;28;20030;-69
2022/11/17 04:59:21;;;;;;;3.30;0.55;;;;;;;17.18;53.63;98314.31;4993855;28;20042;-70
2022/11/17 05:01:47;;;;;;;5.53;0.73;;;;;;;17.13;54.06;98281.72;4994501;28;20556;-70
2022/11/17 05:04:54;;;;;;;5.47;0.52;;;;;;;17.10;53.27;98295.72;4961290;28;20039;-71
2022/11/17 05:06:59;;;;;;;3.60;0.70;;;;;;;17.08;53.05;98311.34;4993098;28;20121;-71
2022/11/17 05:09:25;;;;;;;7.50;1.48;;;;;;;17.03;54.20;98317.44;4993305;28;20069;-70
2022/11/17 05:14:34;;;;;;;3.55;0.70;;;;;;;17.13;54.26;98331.25;4995409;28;20093;-68
2022/11/17 05:17:07;;;;;;;8.13;1.15;;;;;;;17.20;54.42;98334.66;4978783;28;20050;-66
2022/11/17 05:19:38;;;;;;;1.15;0.50;;;;;;;17.21;53.74;98320.09;4981298;28;20125;-66
2022/11/17 05:23:52;;;;;;;1.65;0.63;;;;;;;17.24;53.87;98316.91;4994116;28;20445;-65
2022/11/17 05:24:50;;;;;;;6.88;0.70;;;;;;;17.26;54.13;98322.91;4995150;28;20042;-65
2022/11/17 05:27:15;;;;;;;7.38;1.00;;;;;;;17.30;54.12;98332.22;4993607;28;20496;-64
2022/11/17 05:29:40;;;;;;;4.18;0.73;;;;;;;17.34;54.27;98335.25;4978136;28;20068;-65
2022/11/17 05:32:06;;;;;;;2.55;0.77;;;;;;;17.39;53.26;98338.13;4977252;28;20030;-65
2022/11/17 05:34:31;;;;;;;5.05;0.73;;;;;;;17.41;54.04;98336.81;4993499;28;20121;-64
2022/11/17 05:36:56;;;;;;;4.70;1.02;;;;;;;17.46;52.96;98338.81;4977539;28;20027;-65
2022/11/17 05:39:22;;;;;;;5.38;0.70;;;;;;;17.47;53.78;98332.34;4993733;28;20030;-64
2022/11/17 05:41:47;;;;;;;4.10;0.70;;;;;;;17.45;53.80;98331.75;4977646;28;20030;-64
2022/11/17 05:44:12;;;;;;;7.97;0.73;;;;;;;17.51;52.83;98336.22;4993418;28;20089;-64
2022/11/17 05:46:38;;;;;;;4.80;0.60;;;;;;;17.53;53.03;98336.00;4993103;28;20101;-63
2022/11/17 05:49:03;;;;;;;2.28;0.70;;;;;;;17.53;53.18;98339.53;4977604;28;20034;-63
2022/11/17 05:51:31;;;;;;;4.68;0.40;;;;;;;17.55;52.91;98353.69;4993184;28;20035;-64
2022/11/17 05:53:56;;;;;;;7.07;1.10;;;;;;;17.55;53.34;98339.31;4994878;28;20059;-64
2022/11/17 05:56:29;;;;;;;4.93;0.77;;;;;;;17.55;52.60;98336.63;4993535;28;20089;-65
2022/11/17 05:59:05;;;;;;;1.67;0.50;;;;;;;17.54;53.27;98343.91;4977589;28;20058;-65
2022/11/17 06:01:31;;;;;;;2.35;0.47;;;;;;;17.55;53.47;98350.97;4998817;28;20039;-65
2022/11/17 06:04:02;;;;;;;1.17;0.40;;;;;;;17.51;53.33;98352.47;4999197;28;20034;-64
2022/11/17 06:06:27;;;;;;;6.22;0.93;;;;;;;17.51;52.76;98346.22;4997503;28;20043;-64
2022/11/17 06:08:53;;;;;;;2.67;0.60;;;;;;;17.47;52.93;98351.31;4981719;28;20167;-64
2022/11/17 06:11:18;;;;;;;3.50;1.15;;;;;;;17.52;52.81;98358.72;4998043;28;20058;-64
2022/11/17 06:13:43;;;;;;;1.73;0.55;;;;;;;17.51;53.36;98363.28;4997444;28;20041;-63
2022/11/17 06:16:10;;;;;;;2.60;0.57;;;;;;;17.51;53.59;98365.16;4997832;28;20038;-64
2022/11/17 06:18:48;;;;;;;4.13;0.63;;;;;;;17.55;52.94;98371.81;4980451;28;20041;-64
2022/11/17 06:21:14;;;;;;;4.95;0.60;;;;;;;17.54;52.41;98378.28;4997233;28;20096;-64
2022/11/17 06:23:40;;;;;;;3.40;0.40;;;;;;;17.51;52.17;98382.25;4981603;28;20467;-63
2022/11/17 06:26:08;;;;;;;2.05;0.77;;;;;;;17.50;52.30;98377.91;4981033;28;20070;-63
2022/11/17 06:28:35;;;;;;;0.22;0.22;;;;;;;17.52;52.42;98391.19;4981558;28;20050;-63
2022/11/17 06:31:00;;;;;;;1.92;0.43;;;;;;;17.53;52.32;98393.69;4997688;28;20400;-63
2022/11/17 06:33:28;;;;;;;1.70;0.30;;;;;;;17.53;52.21;98396.38;4997028;28;20042;-63
2022/11/17 06:35:53;;;;;;;1.08;0.40;;;;;;;17.52;51.93;98389.31;4997521;28;20022;-63
2022/11/17 06:38:19;;;;;;;2.90;0.80;;;;;;;17.53;52.44;98392.84;4996661;28;20034;-63
2022/11/17 06:40:44;;;;;;;3.45;0.40;;;;;;;17.53;51.40;98398.25;4997754;28;20117;-63
2022/11/17 06:43:10;;;;;;;2.83;0.52;;;;;;;17.56;52.14;98404.03;4996298;28;20248;-63
2022/11/17 06:45:40;;;;;;;4.30;0.40;;;;;;;17.53;52.41;98401.81;4980164;28;20129;-63
2022/11/17 06:48:07;;;;;;;1.33;0.22;;;;;;;17.53;52.20;98415.34;4980585;28;20129;-62
2022/11/17 06:50:32;;;;;;;1.90;0.50;;;;;;;17.54;51.89;98410.75;4980144;28;20043;-63
2022/11/17 06:52:59;;;;;;;0.60;0.13;;;;;;;17.54;52.18;98411.59;4997462;28;20088;-63
2022/11/17 06:55:25;;;;;;;2.65;0.45;;;;;;;17.52;52.40;98416.38;4980125;28;20073;-63
2022/11/17 06:57:51;;;;;;;8.23;0.38;;;;;;;17.54;51.81;98427.00;4980046;28;20141;-62
2022/11/17 07:00:17;;;;;;;0.55;0.30;;;;;;;17.55;51.98;98434.06;4995997;28;20030;-62
2022/11/17 07:02:42;;;;;;;3.33;0.57;;;;;;;17.54;51.51;98437.81;4979988;28;20026;-62
2022/11/17 07:05:08;;;;;;;4.72;0.30;;;;;;;17.53;51.73;98447.81;4997167;28;20061;-62
2022/11/17 07:07:33;;;;;;;1.13;0.10;;;;;;;17.53;51.65;98444.28;4995880;28;20034;-62
2022/11/17 07:09:59;;;;;;;4.70;0.35;;;;;;;17.53;52.10;98441.56;4995642;28;20411;-62
2022/11/17 07:12:24;;;;;;;2.20;0.30;;;;;;;17.53;51.21;98453.22;4978885;28;20094;-62
2022/11/17 07:14:49;;;;;;;3.10;0.50;;;;;;;17.57;51.09;98459.84;4979771;28;20042;-62
2022/11/17 07:17:15;;;;;;;0.70;0.10;;;;;;;17.57;50.21;98459.84;4996913;28;20492;-62
2022/11/17 07:19:40;;;;;;;1.75;0.30;;;;;;;17.54;51.10;98463.00;4979292;28;20619;-62
2022/11/17 07:22:05;;;;;;;0.85;0.25;;;;;;;17.54;51.36;98465.72;4995605;28;20062;-63
2022/11/17 07:24:31;;;;;;;2.13;0.10;;;;;;;17.42;51.04;98479.19;4996675;28;20030;-65
2022/11/17 07:26:56;;;;;;;1.25;0.20;;;;;;;17.31;50.93;98468.31;4979423;28;20476;-65
2022/11/17 07:29:21;;;;;;;0.68;0.20;;;;;;;17.23;50.87;98474.06;4994985;28;20049;-66
2022/11/17 07:31:47;;;;;;;1.83;0.43;;;;;;;17.19;51.29;98479.13;4978717;28;20030;-66
2022/11/17 07:34:12;;;;;;;0.98;0.10;;;;;;;17.11;51.00;98476.75;4995113;28;20563;-66
2022/11/17 07:36:37;;;;;;;1.73;0.30;;;;;;;17.03;51.83;98478.94;4994970;28;20109;-67
2022/11/17 07:39:04;;;;;;;1.40;0.10;;;;;;;17.00;50.95;98491.00;4962982;28;20069;-66
2022/11/17 07:41:30;;;;;;;0.77;0.30;;;;;;;16.97;51.86;98490.66;4994728;28;20089;-65
2022/11/17 07:43:57;;;;;;;2.83;0.30;;;;;;;16.91;52.51;98486.97;4994414;28;20050;-65
2022/11/17 07:46:22;;;;;;;0.57;0.20;;;;;;;16.92;52.12;98504.03;4995027;28;20407;-65
2022/11/17 07:48:48;;;;;;;1.60;0.38;;;;;;;16.86;52.22;98490.34;4978355;28;20034;-64
2022/11/17 07:51:14;;;;;;;0.70;0.30;;;;;;;16.86;51.09;98505.78;4994843;28;20029;-64
2022/11/17 07:53:40;;;;;;;1.55;0.25;;;;;;;16.88;51.99;98501.78;4996483;28;20022;-63
2022/11/17 07:56:07;;;;;;;0.20;0.10;;;;;;;16.93;51.57;98511.91;4996190;28;20038;-63
2022/11/17 07:58:33;;;;;;;8.65;0.47;;;;;;;16.97;52.18;98513.13;4978660;28;20061;-62
2022/11/17 08:00:58;;;;;;;2.45;1.20;;;;;;;17.02;52.07;98505.16;4996280;28;20066;-62
2022/11/17 08:03:23;;;;;;;0.90;0.20;;;;;;;17.10;51.37;98512.13;4996459;28;20057;-62
2022/11/17 08:05:49;;;;;;;1.13;0.25;;;;;;;17.20;51.46;98517.81;4995238;28;20022;-62
2022/11/17 08:08:15;;;;;;;0.63;0.40;;;;;;;17.27;51.77;98518.56;4978432;28;20046;-62
2022/11/17 08:10:41;;;;;;;1.58;0.20;;;;;;;17.38;50.38;98521.31;4994823;28;20027;-63
2022/11/17 08:13:07;;;;;;;0.25;0.13;;;;;;;17.42;51.30;98522.50;4994436;28;20037;-62
2022/11/17 08:15:33;;;;;;;0.63;0.20;;;;;;;17.52;51.50;98519.25;4994640;28;20038;-62
2022/11/17 08:18:00;;;;;;;4.72;0.30;;;;;;;17.61;51.26;98520.63;4995280;28;20476;-62
2022/11/17 08:20:27;;;;;;;0.75;0.10;;;;;;;17.73;51.02;98524.16;4994925;28;20034;-62
2022/11/17 08:22:52;;;;;;;2.72;0.10;;;;;;;17.79;50.88;98523.25;4977784;28;20033;-62
2022/11/17 08:25:19;;;;;;;3.40;0.55;;;;;;;17.83;50.32;98524.44;4994450;28;20046;-62
2022/11/17 08:27:44;;;;;;;4.07;0.10;;;;;;;17.89;51.12;98522.69;4994493;28;20042;-62
2022/11/17 08:30:10;;;;;;;4.57;0.47;;;;;;;17.92;50.51;98520.31;4994751;28;20033;-62
2022/11/17 08:32:35;;;;;;;0.28;0.17;;;;;;;17.94;50.73;98520.94;4995169;28;20109;-62
2022/11/17 08:35:06;;;;;;;1.90;0.20;;;;;;;17.95;50.15;98530.69;4978575;28;20034;-62
2022/11/17 08:37:31;;;;;;;1.23;0.30;;;;;;;17.94;50.48;98520.94;4995103;28;20441;-62
2022/11/17 08:39:57;;;;;;;0.30;0.17;;;;;;;17.99;50.45;98525.63;4996006;28;20057;-62
2022/11/17 08:42:22;;;;;;;1.27;0.10;;;;;;;17.99;49.69;98534.59;4994541;28;20038;-62
2022/11/17 08:44:48;;;;;;;1.02;0.10;;;;;;;18.00;50.25;98536.25;4996617;28;20113;-62
2022/11/17 08:47:13;;;;;;;1.70;0.40;;;;;;;17.99;49.91;98531.06;4994753;28;20046;-61
2022/11/17 08:49:38;;;;;;;1.38;0.10;;;;;;;18.04;49.73;98542.84;4994558;28;20038;-62
2022/11/17 08:52:04;;;;;;;1.88;0.32;;;;;;;18.12;50.01;98538.16;4978646;28;20045;-62
2022/11/17 08:54:29;;;;;;;1.27;0.20;;;;;;;18.14;49.53;98539.56;4978452;28;20026;-62
2022/11/17 08:56:58;;;;;;;0.20;0.20;;;;;;;18.19;49.39;98555.13;4978891;28;20475;-62
2022/11/17 08:59:24;;;;;;;2.75;0.35;;;;;;;18.19;50.07;98539.69;4978726;28;20034;-62
2022/11/17 09:01:49;;;;;;;2.67;0.20;;;;;;;18.26;49.75;98553.09;4994833;28;20381;-62
2022/11/17 09:04:15;;;;;;;1.00;0.30;;;;;;;18.28;50.13;98565.38;4994947;28;20038;-63
2022/11/17 09:06:40;;;;;;;0.73;0.20;;;;;;;18.32;49.66;98560.31;4994906;28;20380;-62
2022/11/17 09:09:06;;;;;;;1.05;0.50;;;;;;;18.36;49.37;98558.78;4995261;28;20076;-62
2022/11/17 09:11:31;;;;;;;0.30;0.30;;;;;;;18.39;48.91;98566.47;4996462;28;20026;-62
2022/11/17 09:13:57;;;;;;;3.28;0.20;;;;;;;18.44;48.83;98577.41;4994468;28;20037;-62
2022/11/17 09:16:24;;;;;;;0.30;0.10;;;;;;;18.47;49.04;98569.66;4995118;28;20069;-62
2022/11/17 09:18:54;;;;;;;1.55;0.10;;;;;;;18.57;48.77;98575.31;4995345;28;20038;-62
2022/11/17 09:21:19;;;;;;;1.70;0.20;;;;;;;18.69;47.82;98572.63;4979065;28;20026;-61
2022/11/17 09:23:45;;;;;;;0.88;0.40;;;;;;;18.84;48.30;98574.84;4994869;28;20430;-61
2022/11/17 09:26:13;;;;;;;2.15;0.22;;;;;;;18.99;47.65;98578.72;4995936;28;20035;-62
2022/11/17 09:28:38;;;;;;;0.75;0.20;;;;;;;18.99;47.95;98586.84;4995110;28;20058;-61
2022/11/17 09:31:06;;;;;;;0.38;0.17;;;;;;;19.00;47.81;98585.81;4995468;28;20245;-62
2022/11/17 09:33:31;;;;;;;0.98;0.10;;;;;;;19.04;47.68;98594.28;4978752;28;20050;-62
2022/11/17 09:35:56;;;;;;;1.00;0.10;;;;;;;19.09;47.75;98595.25;4995371;28;20104;-61
2022/11/17 09:38:22;;;;;;;1.88;0.10;;;;;;;19.21;47.64;98597.91;4995531;28;20038;-61
2022/11/17 09:40:47;;;;;;;0.40;0.20;;;;;;;19.38;47.00;98600.69;4978163;28;20042;-62
2022/11/17 09:43:26;;;;;;;0.40;0.20;;;;;;;19.45;47.12;98594.13;4993665;28;20043;-62
2022/11/17 09:46:18;;;;;;;1.27;0.15;;;;;;;19.68;46.45;98614.94;4995311;28;20031;-62
2022/11/17 09:48:52;;;;;;;0.95;0.17;;;;;;;19.83;46.57;98612.50;4958795;28;20031;-62
2022/11/17 09:51:20;;;;;;;0.10;0.10;;;;;;;19.79;46.42;98622.22;4995435;28;20026;-62
2022/11/17 09:53:53;;;;;;;1.60;0.15;;;;;;;19.75;46.77;98623.75;4995089;28;20498;-62
2022/11/17 09:56:18;;;;;;;0.00;0.00;;;;;;;19.71;46.50;98622.59;4977388;28;20035;-62
2022/11/17 09:58:51;;;;;;;2.75;0.20;;;;;;;19.75;46.46;98634.63;4994788;28;20030;-63
2022/11/17 10:01:18;;;;;;;1.40;0.45;;;;;;;19.85;46.07;98620.44;4993088;28;20070;-62
2022/11/17 10:03:46;;;;;;;1.75;0.17;;;;;;;20.00;46.21;98631.56;4993438;28;20034;-62
2022/11/17 10:06:31;;;;;;;0.80;0.15;;;;;;;20.00;45.89;98628.84;4977131;28;20069;-62
2022/11/17 10:09:27;;;;;;;0.10;0.10;;;;;;;19.95;46.67;98637.75;4977257;28;20030;-62
2022/11/17 10:12:00;;;;;;;0.52;0.25;;;;;;;19.96;45.90;98633.94;4994665;28;20046;-62
2022/11/17 10:14:26;;;;;;;;;;;;;;;20.21;45.75;98641.75;4993961;28;20057;-62
2022/11/17 10:16:54;;;;;;;0.95;0.13;;;;;;;20.20;46.02;98640.94;4977377;28;19913;-62
2022/11/17 10:19:45;;;;;;;1.15;0.28;;;;;;;20.39;45.66;98654.31;4977061;28;20034;-62
2022/11/17 10:22:17;;;;;;;2.00;0.50;;;;;;;20.39;45.30;98655.16;4988282;28;20459;-62
2022/11/17 10:24:46;;;;;;;0.10;0.10;;;;;;;20.41;45.27;98646.75;4977180;28;20031;-62
2022/11/17 10:27:27;;;;;;;0.38;0.20;;;;;;;20.36;45.32;98668.41;4993375;28;20379;-62
2022/11/17 10:30:03;;;;;;;0.90;0.30;;;;;;;20.34;45.28;98663.22;4977344;28;20025;-62
2022/11/17 10:32:32;;;;;;;1.02;0.20;;;;;;;20.24;45.28;98658.41;4993822;28;20385;-62
2022/11/17 10:35:17;;;;;;;0.32;0.13;;;;;;;20.22;45.30;98670.56;4993433;28;20057;-62
2022/11/17 10:37:58;;;;;;;0.30;0.28;;;;;;;20.16;45.37;98685.97;4977192;28;20504;-62
2022/11/17 10:40:28;;;;;;;2.92;0.20;;;;;;;20.11;45.41;98675.00;4977066;28;20046;-62
2022/11/17 10:43:00;;;;;;;1.13;0.13;;;;;;;20.03;45.24;98678.13;4976984;28;20069;-62
2022/11/17 10:45:25;;;;;;;0.55;0.20;;;;;;;19.92;45.73;98681.72;4993397;28;20026;-62
2022/11/17 10:47:50;;;;;;;1.15;0.10;;;;;;;19.81;45.52;98674.44;4996859;28;20030;-62
2022/11/17 10:50:21;;;;;;;3.70;0.32;;;;;;;19.86;45.59;98671.81;4996867;28;20041;-62
2022/11/17 10:52:47;;;;;;;2.42;0.10;;;;;;;19.91;45.39;98679.22;4980412;28;20500;-62
2022/11/17 10:55:25;;;;;;;3.90;0.20;;;;;;;19.89;44.88;98693.06;4996844;28;20038;-62
2022/11/17 10:58:18;;;;;;;1.77;0.30;;;;;;;19.85;45.25;98681.00;4996185;28;20050;-62
2022/11/17 11:00:51;;;;;;;0.95;0.30;;;;;;;19.76;45.74;98685.19;4972592;28;20423;-62
2022/11/17 11:03:19;;;;;;;6.00;0.45;;;;;;;19.73;45.46;98688.38;4996291;28;20076;-62
2022/11/17 11:05:58;;;;;;;1.58;0.20;;;;;;;19.70;45.88;98686.16;4980358;28;20069;-62
2022/11/17 11:08:28;;;;;;;1.35;0.20;;;;;;;19.69;45.92;98692.63;4996444;28;20037;-61
2022/11/17 11:10:54;;;;;;;0.75;0.20;;;;;;;19.64;45.65;98687.09;4980444;28;20548;-62
2022/11/17 11:13:44;;;;;;;2.50;0.85;;;;;;;19.65;45.45;98692.28;4980389;28;20038;-62
2022/11/17 11:16:10;;;;;;;2.60;0.20;;;;;;;19.63;45.04;98678.13;4996186;28;20034;-62
2022/11/17 11:18:37;;;;;;;0.40;0.22;;;;;;;19.61;44.79;98699.28;4996371;28;20053;-61
2022/11/17 11:21:16;;;;;;;1.33;0.20;;;;;;;19.60;44.92;98699.50;4996318;28;20034;-62
2022/11/17 11:23:49;;;;;;;0.77;0.22;;;;;;;19.65;44.82;98707.78;4996546;28;20039;-62
2022/11/17 11:26:26;;;;;;;2.65;0.40;;;;;;;19.63;45.01;98699.84;4995928;28;20031;-62
2022/11/17 11:29:13;;;;;;;0.40;0.32;;;;;;;19.57;44.75;98706.25;4997515;28;20439;-62
2022/11/17 11:31:54;;;;;;;1.73;0.10;;;;;;;19.54;45.37;98701.28;4995894;28;20378;-62
2022/11/17 11:34:28;;;;;;;7.93;0.90;;;;;;;19.53;45.55;98704.25;4995739;28;20088;-62
2022/11/17 11:37:20;;;;;;;2.90;0.22;;;;;;;19.55;44.67;98702.94;4996956;28;20028;-62
2022/11/17 11:40:14;;;;;;;0.95;0.17;;;;;;;19.63;45.12;98705.28;4991000;28;20031;-62
2022/11/17 11:42:51;;;;;;;1.25;0.40;;;;;;;19.64;45.25;98711.56;4979083;28;20030;-62
2022/11/17 11:45:25;;;;;;;2.65;0.82;;;;;;;19.57;44.73;98727.16;4995892;28;20022;-62
2022/11/17 11:48:03;;;;;;;0.30;0.25;;;;;;;19.52;45.09;98713.47;4980035;28;20034;-62
2022/11/17 11:50:53;;;;;;;0.38;0.20;;;;;;;19.51;44.33;98711.81;4995602;28;20066;-62
2022/11/17 11:53:37;;;;;;;0.52;0.25;;;;;;;19.57;44.57;98722.53;4979491;28;20038;-62
2022/11/17 11:56:11;;;;;;;0.32;0.17;;;;;;;19.69;44.44;98722.53;4995187;28;20041;-62
2022/11/17 11:58:51;;;;;;;1.23;0.30;;;;;;;19.75;44.24;98719.69;4995774;28;20530;-62
2022/11/17 12:01:19;;;;;;;2.80;0.30;;;;;;;19.89;44.26;98720.25;4997087;28;20500;-62
2022/11/17 12:04:14;;;;;;;2.88;0.38;;;;;;;20.14;44.04;98718.03;4979803;28;20046;-62
2022/11/17 12:06:52;;;;;;;2.38;0.35;;;;;;;20.21;44.11;98724.13;4995832;28;20034;-62
2022/11/17 12:09:46;;;;;;;0.63;0.20;;;;;;;20.24;43.99;98734.56;4995202;28;20037;-62